sensor_id;sensor_type;location;lat;lon;timestamp;temperature;humidity
67005;HTU21D;53920;51.094;5.902;2022-09-09T00:02:02;15.65;81.98
67005;HTU21D;53920;51.094;5.902;2022-09-09T00:04:33;15.60;82.01
67005;HTU21D;53920;51.094;5.902;2022-09-09T00:15:18;15.52;82.12
67005;HTU21D;53920;51.094;5.902;2022-09-09T00:17:56;15.47;82.26
67005;HTU21D;53920;51.094;5.902;2022-09-09T00:23:28;15.48;82.89
67005;HTU21D;53920;51.094;5.902;2022-09-09T00:31:35;15.57;83.42
67005;HTU21D;53920;51.094;5.902;2022-09-09T00:34:23;15.60;83.36
67005;HTU21D;53920;51.094;5.902;2022-09-09T00:36:52;15.60;83.39
67005;HTU21D;53920;51.094;5.902;2022-09-09T00:39:36;15.57;83.36
67005;HTU21D;53920;51.094;5.902;2022-09-09T00:42:20;15.57;83.34
67005;HTU21D;53920;51.094;5.902;2022-09-09T00:47:46;15.57;83.19
67005;HTU21D;53920;51.094;5.902;2022-09-09T00:50:48;15.59;83.15
67005;HTU21D;53920;51.094;5.902;2022-09-09T00:55:54;15.66;82.96
67005;HTU21D;53920;51.094;5.902;2022-09-09T00:58:23;15.68;82.83
67005;HTU21D;53920;51.094;5.902;2022-09-09T01:01:02;15.67;82.72
67005;HTU21D;53920;51.094;5.902;2022-09-09T01:03:35;15.66;82.76
67005;HTU21D;53920;51.094;5.902;2022-09-09T01:09:00;15.65;82.43
67005;HTU21D;53920;51.094;5.902;2022-09-09T01:11:49;15.60;82.37
67005;HTU21D;53920;51.094;5.902;2022-09-09T01:17:27;15.58;82.40
67005;HTU21D;53920;51.094;5.902;2022-09-09T01:26:04;15.60;82.26
67005;HTU21D;53920;51.094;5.902;2022-09-09T01:28:34;15.59;82.16
67005;HTU21D;53920;51.094;5.902;2022-09-09T01:31:11;15.58;82.28
67005;HTU21D;53920;51.094;5.902;2022-09-09T01:33:42;15.55;82.30
67005;HTU21D;53920;51.094;5.902;2022-09-09T01:39:04;15.57;82.34
67005;HTU21D;53920;51.094;5.902;2022-09-09T01:41:32;15.55;82.48
67005;HTU21D;53920;51.094;5.902;2022-09-09T01:44:12;15.59;82.34
67005;HTU21D;53920;51.094;5.902;2022-09-09T01:46:42;15.59;82.39
67005;HTU21D;53920;51.094;5.902;2022-09-09T01:49:16;15.58;82.37
67005;HTU21D;53920;51.094;5.902;2022-09-09T01:51:43;15.58;82.28
67005;HTU21D;53920;51.094;5.902;2022-09-09T01:54:15;15.60;82.15
67005;HTU21D;53920;51.094;5.902;2022-09-09T01:59:29;15.57;82.29
67005;HTU21D;53920;51.094;5.902;2022-09-09T02:02:23;15.60;82.29
67005;HTU21D;53920;51.094;5.902;2022-09-09T02:08:23;15.70;82.01
67005;HTU21D;53920;51.094;5.902;2022-09-09T02:11:14;15.67;82.29
67005;HTU21D;53920;51.094;5.902;2022-09-09T02:14:12;15.69;82.38
67005;HTU21D;53920;51.094;5.902;2022-09-09T02:16:56;15.75;82.17
67005;HTU21D;53920;51.094;5.902;2022-09-09T02:19:42;15.75;82.17
67005;HTU21D;53920;51.094;5.902;2022-09-09T02:22:25;15.76;82.13
67005;HTU21D;53920;51.094;5.902;2022-09-09T02:24:58;15.77;82.11
67005;HTU21D;53920;51.094;5.902;2022-09-09T02:27:27;15.77;82.05
67005;HTU21D;53920;51.094;5.902;2022-09-09T02:29:59;15.76;82.15
67005;HTU21D;53920;51.094;5.902;2022-09-09T02:32:38;15.74;82.23
67005;HTU21D;53920;51.094;5.902;2022-09-09T02:35:13;15.73;82.24
67005;HTU21D;53920;51.094;5.902;2022-09-09T02:37:45;15.73;82.31
67005;HTU21D;53920;51.094;5.902;2022-09-09T02:40:16;15.72;82.20
67005;HTU21D;53920;51.094;5.902;2022-09-09T02:42:48;15.72;82.21
67005;HTU21D;53920;51.094;5.902;2022-09-09T02:45:19;15.73;82.17
67005;HTU21D;53920;51.094;5.902;2022-09-09T02:47:59;15.74;82.13
67005;HTU21D;53920;51.094;5.902;2022-09-09T02:51:23;15.75;82.20
67005;HTU21D;53920;51.094;5.902;2022-09-09T02:54:16;15.82;81.97
67005;HTU21D;53920;51.094;5.902;2022-09-09T02:56:51;15.85;81.88
67005;HTU21D;53920;51.094;5.902;2022-09-09T02:59:25;15.91;81.84
67005;HTU21D;53920;51.094;5.902;2022-09-09T03:01:53;15.93;81.81
67005;HTU21D;53920;51.094;5.902;2022-09-09T03:04:19;15.97;81.74
67005;HTU21D;53920;51.094;5.902;2022-09-09T03:06:46;15.98;81.77
67005;HTU21D;53920;51.094;5.902;2022-09-09T03:09:17;15.98;81.72
67005;HTU21D;53920;51.094;5.902;2022-09-09T03:11:43;15.99;81.73
67005;HTU21D;53920;51.094;5.902;2022-09-09T03:14:10;15.98;81.85
67005;HTU21D;53920;51.094;5.902;2022-09-09T03:16:38;15.98;81.84
67005;HTU21D;53920;51.094;5.902;2022-09-09T03:19:06;15.99;81.86
67005;HTU21D;53920;51.094;5.902;2022-09-09T03:21:32;16.00;81.78
67005;HTU21D;53920;51.094;5.902;2022-09-09T03:24:01;15.97;81.88
67005;HTU21D;53920;51.094;5.902;2022-09-09T03:26:30;15.99;81.91
67005;HTU21D;53920;51.094;5.902;2022-09-09T03:28:58;15.98;81.88
67005;HTU21D;53920;51.094;5.902;2022-09-09T03:31:27;16.00;81.80
67005;HTU21D;53920;51.094;5.902;2022-09-09T03:33:57;16.07;81.62
67005;HTU21D;53920;51.094;5.902;2022-09-09T03:36:26;16.13;81.49
67005;HTU21D;53920;51.094;5.902;2022-09-09T03:38:53;16.19;81.38
67005;HTU21D;53920;51.094;5.902;2022-09-09T03:41:25;16.27;81.10
67005;HTU21D;53920;51.094;5.902;2022-09-09T03:43:53;16.28;80.97
67005;HTU21D;53920;51.094;5.902;2022-09-09T03:46:23;16.28;80.90
67005;HTU21D;53920;51.094;5.902;2022-09-09T03:49:10;16.25;81.02
67005;HTU21D;53920;51.094;5.902;2022-09-09T03:51:36;16.21;81.12
67005;HTU21D;53920;51.094;5.902;2022-09-09T03:54:02;16.21;81.11
67005;HTU21D;53920;51.094;5.902;2022-09-09T03:56:31;16.20;81.01
67005;HTU21D;53920;51.094;5.902;2022-09-09T03:59:01;16.22;80.96
67005;HTU21D;53920;51.094;5.902;2022-09-09T04:01:29;16.24;80.98
67005;HTU21D;53920;51.094;5.902;2022-09-09T04:03:55;16.25;80.91
67005;HTU21D;53920;51.094;5.902;2022-09-09T04:06:24;16.33;80.55
67005;HTU21D;53920;51.094;5.902;2022-09-09T04:08:53;16.41;80.30
67005;HTU21D;53920;51.094;5.902;2022-09-09T04:11:21;16.44;80.20
67005;HTU21D;53920;51.094;5.902;2022-09-09T04:13:50;16.44;80.12
67005;HTU21D;53920;51.094;5.902;2022-09-09T04:16:17;16.42;80.21
67005;HTU21D;53920;51.094;5.902;2022-09-09T04:18:43;16.46;80.15
67005;HTU21D;53920;51.094;5.902;2022-09-09T04:21:10;16.47;80.07
67005;HTU21D;53920;51.094;5.902;2022-09-09T04:23:43;16.49;80.03
67005;HTU21D;53920;51.094;5.902;2022-09-09T04:26:09;16.54;79.91
67005;HTU21D;53920;51.094;5.902;2022-09-09T04:28:39;16.58;79.72
67005;HTU21D;53920;51.094;5.902;2022-09-09T04:31:18;16.62;79.70
67005;HTU21D;53920;51.094;5.902;2022-09-09T04:33:47;16.67;79.40
67005;HTU21D;53920;51.094;5.902;2022-09-09T04:36:13;16.70;79.21
67005;HTU21D;53920;51.094;5.902;2022-09-09T04:38:40;16.72;79.13
67005;HTU21D;53920;51.094;5.902;2022-09-09T04:41:07;16.74;79.04
67005;HTU21D;53920;51.094;5.902;2022-09-09T04:43:37;16.77;78.90
67005;HTU21D;53920;51.094;5.902;2022-09-09T04:46:06;16.80;78.61
67005;HTU21D;53920;51.094;5.902;2022-09-09T04:48:32;16.81;78.44
67005;HTU21D;53920;51.094;5.902;2022-09-09T04:51:08;16.82;78.34
67005;HTU21D;53920;51.094;5.902;2022-09-09T04:53:35;16.79;78.43
67005;HTU21D;53920;51.094;5.902;2022-09-09T04:56:30;16.80;78.44
67005;HTU21D;53920;51.094;5.902;2022-09-09T04:58:57;16.79;78.34
67005;HTU21D;53920;51.094;5.902;2022-09-09T05:01:33;16.76;78.28
67005;HTU21D;53920;51.094;5.902;2022-09-09T05:04:03;16.69;78.55
67005;HTU21D;53920;51.094;5.902;2022-09-09T05:06:29;16.66;78.57
67005;HTU21D;53920;51.094;5.902;2022-09-09T05:08:59;16.59;78.59
67005;HTU21D;53920;51.094;5.902;2022-09-09T05:11:31;16.54;78.74
67005;HTU21D;53920;51.094;5.902;2022-09-09T05:14:30;16.50;78.79
67005;HTU21D;53920;51.094;5.902;2022-09-09T05:16:59;16.49;78.73
67005;HTU21D;53920;51.094;5.902;2022-09-09T05:19:25;16.49;78.76
67005;HTU21D;53920;51.094;5.902;2022-09-09T05:21:53;16.47;78.71
67005;HTU21D;53920;51.094;5.902;2022-09-09T05:24:25;16.42;78.87
67005;HTU21D;53920;51.094;5.902;2022-09-09T05:26:54;16.39;79.06
67005;HTU21D;53920;51.094;5.902;2022-09-09T05:29:25;16.36;79.01
67005;HTU21D;53920;51.094;5.902;2022-09-09T05:31:52;16.37;79.02
67005;HTU21D;53920;51.094;5.902;2022-09-09T05:34:20;16.41;78.96
67005;HTU21D;53920;51.094;5.902;2022-09-09T05:36:46;16.40;78.88
67005;HTU21D;53920;51.094;5.902;2022-09-09T05:39:13;16.45;78.75
67005;HTU21D;53920;51.094;5.902;2022-09-09T05:41:40;16.48;78.53
67005;HTU21D;53920;51.094;5.902;2022-09-09T05:44:06;16.50;78.32
67005;HTU21D;53920;51.094;5.902;2022-09-09T05:46:37;16.51;78.10
67005;HTU21D;53920;51.094;5.902;2022-09-09T05:49:03;16.57;77.88
67005;HTU21D;53920;51.094;5.902;2022-09-09T05:51:33;16.54;77.84
67005;HTU21D;53920;51.094;5.902;2022-09-09T05:54:08;16.57;77.73
67005;HTU21D;53920;51.094;5.902;2022-09-09T05:56:38;16.62;77.72
67005;HTU21D;53920;51.094;5.902;2022-09-09T05:59:07;16.67;77.53
67005;HTU21D;53920;51.094;5.902;2022-09-09T06:01:36;16.75;77.27
67005;HTU21D;53920;51.094;5.902;2022-09-09T06:04:08;16.80;77.07
67005;HTU21D;53920;51.094;5.902;2022-09-09T06:06:37;16.80;76.82
67005;HTU21D;53920;51.094;5.902;2022-09-09T06:09:10;16.81;76.81
67005;HTU21D;53920;51.094;5.902;2022-09-09T06:11:40;16.77;76.98
67005;HTU21D;53920;51.094;5.902;2022-09-09T06:14:07;16.78;76.64
67005;HTU21D;53920;51.094;5.902;2022-09-09T06:16:34;16.85;76.28
67005;HTU21D;53920;51.094;5.902;2022-09-09T06:19:05;16.99;75.92
67005;HTU21D;53920;51.094;5.902;2022-09-09T06:21:36;17.16;75.09
67005;HTU21D;53920;51.094;5.902;2022-09-09T06:24:05;17.23;74.96
67005;HTU21D;53920;51.094;5.902;2022-09-09T06:26:33;17.32;74.57
67005;HTU21D;53920;51.094;5.902;2022-09-09T06:29:03;17.37;74.44
67005;HTU21D;53920;51.094;5.902;2022-09-09T06:31:35;17.52;73.70
67005;HTU21D;53920;51.094;5.902;2022-09-09T06:34:23;17.73;73.09
67005;HTU21D;53920;51.094;5.902;2022-09-09T06:36:53;17.78;72.95
67005;HTU21D;53920;51.094;5.902;2022-09-09T06:39:19;17.87;72.59
67005;HTU21D;53920;51.094;5.902;2022-09-09T06:41:45;17.88;72.54
67005;HTU21D;53920;51.094;5.902;2022-09-09T06:44:38;17.92;72.31
67005;HTU21D;53920;51.094;5.902;2022-09-09T06:47:08;18.03;72.18
67005;HTU21D;53920;51.094;5.902;2022-09-09T06:49:34;18.10;71.83
67005;HTU21D;53920;51.094;5.902;2022-09-09T06:52:03;18.21;71.63
67005;HTU21D;53920;51.094;5.902;2022-09-09T06:54:30;18.29;71.27
67005;HTU21D;53920;51.094;5.902;2022-09-09T06:56:57;18.18;71.11
67005;HTU21D;53920;51.094;5.902;2022-09-09T06:59:24;18.12;71.31
67005;HTU21D;53920;51.094;5.902;2022-09-09T07:01:54;18.20;71.19
67005;HTU21D;53920;51.094;5.902;2022-09-09T07:04:20;18.25;70.62
67005;HTU21D;53920;51.094;5.902;2022-09-09T07:06:49;18.29;70.41
67005;HTU21D;53920;51.094;5.902;2022-09-09T07:09:20;18.49;69.87
67005;HTU21D;53920;51.094;5.902;2022-09-09T07:11:51;18.62;69.11
67005;HTU21D;53920;51.094;5.902;2022-09-09T07:14:23;18.57;69.14
67005;HTU21D;53920;51.094;5.902;2022-09-09T07:17:04;18.53;69.14
67005;HTU21D;53920;51.094;5.902;2022-09-09T07:19:36;18.63;68.88
67005;HTU21D;53920;51.094;5.902;2022-09-09T07:22:04;19.74;65.15
67005;HTU21D;53920;51.094;5.902;2022-09-09T07:24:32;21.58;59.57
67005;HTU21D;53920;51.094;5.902;2022-09-09T07:26:58;23.03;54.97
67005;HTU21D;53920;51.094;5.902;2022-09-09T07:29:26;24.08;52.09
67005;HTU21D;53920;51.094;5.902;2022-09-09T07:31:52;24.98;49.46
67005;HTU21D;53920;51.094;5.902;2022-09-09T07:34:24;25.39;48.21
67005;HTU21D;53920;51.094;5.902;2022-09-09T07:36:51;26.04;46.40
67005;HTU21D;53920;51.094;5.902;2022-09-09T07:39:18;26.30;45.80
67005;HTU21D;53920;51.094;5.902;2022-09-09T07:41:51;26.48;45.22
67005;HTU21D;53920;51.094;5.902;2022-09-09T07:44:23;26.70;45.14
67005;HTU21D;53920;51.094;5.902;2022-09-09T07:46:59;26.32;45.45
67005;HTU21D;53920;51.094;5.902;2022-09-09T07:49:30;25.39;47.89
67005;HTU21D;53920;51.094;5.902;2022-09-09T07:51:58;24.00;51.04
67005;HTU21D;53920;51.094;5.902;2022-09-09T07:54:24;22.46;55.01
67005;HTU21D;53920;51.094;5.902;2022-09-09T07:56:52;21.52;57.72
67005;HTU21D;53920;51.094;5.902;2022-09-09T07:59:21;21.17;58.26
67005;HTU21D;53920;51.094;5.902;2022-09-09T08:01:52;20.71;59.44
67005;HTU21D;53920;51.094;5.902;2022-09-09T08:04:23;20.35;60.57
67005;HTU21D;53920;51.094;5.902;2022-09-09T08:06:56;20.09;61.27
67005;HTU21D;53920;51.094;5.902;2022-09-09T08:09:27;19.91;61.37
67005;HTU21D;53920;51.094;5.902;2022-09-09T08:12:03;19.86;61.75
67005;HTU21D;53920;51.094;5.902;2022-09-09T08:14:33;19.86;62.48
67005;HTU21D;53920;51.094;5.902;2022-09-09T08:17:02;19.83;62.45
67005;HTU21D;53920;51.094;5.902;2022-09-09T08:19:31;19.80;62.34
67005;HTU21D;53920;51.094;5.902;2022-09-09T08:22:03;19.75;62.32
67005;HTU21D;53920;51.094;5.902;2022-09-09T08:24:30;19.70;62.02
67005;HTU21D;53920;51.094;5.902;2022-09-09T08:26:57;19.71;61.97
67005;HTU21D;53920;51.094;5.902;2022-09-09T08:29:27;19.73;61.53
67005;HTU21D;53920;51.094;5.902;2022-09-09T08:31:58;19.77;61.10
67005;HTU21D;53920;51.094;5.902;2022-09-09T08:34:27;19.96;60.99
67005;HTU21D;53920;51.094;5.902;2022-09-09T08:36:55;20.17;60.10
67005;HTU21D;53920;51.094;5.902;2022-09-09T08:39:28;20.62;58.91
67005;HTU21D;53920;51.094;5.902;2022-09-09T08:42:41;21.05;57.50
67005;HTU21D;53920;51.094;5.902;2022-09-09T08:45:26;21.90;55.65
67005;HTU21D;53920;51.094;5.902;2022-09-09T08:48:06;24.09;50.02
67005;HTU21D;53920;51.094;5.902;2022-09-09T08:50:38;25.79;45.67
67005;HTU21D;53920;51.094;5.902;2022-09-09T08:53:38;25.05;46.67
67005;HTU21D;53920;51.094;5.902;2022-09-09T08:56:13;23.58;50.13
67005;HTU21D;53920;51.094;5.902;2022-09-09T08:58:49;22.35;52.78
67005;HTU21D;53920;51.094;5.902;2022-09-09T09:01:51;21.48;55.42
67005;HTU21D;53920;51.094;5.902;2022-09-09T09:04:56;20.85;57.05
67005;HTU21D;53920;51.094;5.902;2022-09-09T09:07:37;20.64;57.19
67005;HTU21D;53920;51.094;5.902;2022-09-09T09:12:59;20.42;58.46
67005;HTU21D;53920;51.094;5.902;2022-09-09T09:15:36;20.26;58.96
67005;HTU21D;53920;51.094;5.902;2022-09-09T09:18:05;20.12;59.43
67005;HTU21D;53920;51.094;5.902;2022-09-09T09:20:48;20.04;59.96
67005;HTU21D;53920;51.094;5.902;2022-09-09T09:26:21;19.89;60.12
67005;HTU21D;53920;51.094;5.902;2022-09-09T09:28:50;19.99;59.68
67005;HTU21D;53920;51.094;5.902;2022-09-09T09:31:19;20.16;59.46
67005;HTU21D;53920;51.094;5.902;2022-09-09T09:33:50;20.39;58.82
67005;HTU21D;53920;51.094;5.902;2022-09-09T09:36:42;20.68;58.12
67005;HTU21D;53920;51.094;5.902;2022-09-09T09:39:32;21.03;57.29
67005;HTU21D;53920;51.094;5.902;2022-09-09T09:42:12;21.03;57.26
67005;HTU21D;53920;51.094;5.902;2022-09-09T09:44:43;20.93;57.37
67005;HTU21D;53920;51.094;5.902;2022-09-09T09:47:19;20.76;58.30
67005;HTU21D;53920;51.094;5.902;2022-09-09T09:49:59;20.39;59.42
67005;HTU21D;53920;51.094;5.902;2022-09-09T09:52:32;20.14;60.28
67005;HTU21D;53920;51.094;5.902;2022-09-09T09:55:13;20.10;60.31
67005;HTU21D;53920;51.094;5.902;2022-09-09T09:57:40;20.32;59.86
67005;HTU21D;53920;51.094;5.902;2022-09-09T10:00:13;20.45;59.52
67005;HTU21D;53920;51.094;5.902;2022-09-09T10:02:49;20.53;59.51
67005;HTU21D;53920;51.094;5.902;2022-09-09T10:05:30;20.44;59.52
67005;HTU21D;53920;51.094;5.902;2022-09-09T10:08:15;20.22;60.92
67005;HTU21D;53920;51.094;5.902;2022-09-09T10:17:10;18.74;70.10
67005;HTU21D;53920;51.094;5.902;2022-09-09T10:19:56;18.52;71.42
67005;HTU21D;53920;51.094;5.902;2022-09-09T10:22:33;18.71;71.16
67005;HTU21D;53920;51.094;5.902;2022-09-09T10:31:07;19.16;68.83
67005;HTU21D;53920;51.094;5.902;2022-09-09T10:36:57;19.11;67.23
67005;HTU21D;53920;51.094;5.902;2022-09-09T10:39:39;19.21;66.10
67005;HTU21D;53920;51.094;5.902;2022-09-09T10:42:16;19.25;65.62
67005;HTU21D;53920;51.094;5.902;2022-09-09T10:45:13;19.15;65.91
67005;HTU21D;53920;51.094;5.902;2022-09-09T10:51:00;19.38;65.97
67005;HTU21D;53920;51.094;5.902;2022-09-09T10:56:29;19.45;64.33
67005;HTU21D;53920;51.094;5.902;2022-09-09T10:59:18;19.46;63.15
67005;HTU21D;53920;51.094;5.902;2022-09-09T11:01:57;19.57;62.79
67005;HTU21D;53920;51.094;5.902;2022-09-09T11:05:18;19.72;62.51
67005;HTU21D;53920;51.094;5.902;2022-09-09T11:08:01;19.67;62.17
67005;HTU21D;53920;51.094;5.902;2022-09-09T11:13:25;19.65;63.56
67005;HTU21D;53920;51.094;5.902;2022-09-09T11:16:30;19.16;66.34
67005;HTU21D;53920;51.094;5.902;2022-09-09T11:21:49;18.19;72.54
67005;HTU21D;53920;51.094;5.902;2022-09-09T11:27:23;17.62;77.01
67005;HTU21D;53920;51.094;5.902;2022-09-09T11:32:55;17.51;78.66
67005;HTU21D;53920;51.094;5.902;2022-09-09T11:38:21;18.11;77.58
67005;HTU21D;53920;51.094;5.902;2022-09-09T11:41:00;18.46;76.98
67005;HTU21D;53920;51.094;5.902;2022-09-09T11:43:38;18.82;76.33
67005;HTU21D;53920;51.094;5.902;2022-09-09T11:46:08;19.24;75.32
67005;HTU21D;53920;51.094;5.902;2022-09-09T11:48:37;19.56;74.06
67005;HTU21D;53920;51.094;5.902;2022-09-09T11:51:24;19.86;72.74
67005;HTU21D;53920;51.094;5.902;2022-09-09T11:53:59;20.25;70.79
67005;HTU21D;53920;51.094;5.902;2022-09-09T11:56:42;20.69;68.59
67005;HTU21D;53920;51.094;5.902;2022-09-09T11:59:27;20.77;66.88
67005;HTU21D;53920;51.094;5.902;2022-09-09T12:02:13;20.78;66.78
67005;HTU21D;53920;51.094;5.902;2022-09-09T12:05:10;20.78;65.93
67005;HTU21D;53920;51.094;5.902;2022-09-09T12:07:52;20.89;65.03
67005;HTU21D;53920;51.094;5.902;2022-09-09T12:10:31;20.92;63.61
67005;HTU21D;53920;51.094;5.902;2022-09-09T12:13:15;20.81;63.60
67005;HTU21D;53920;51.094;5.902;2022-09-09T12:15:54;20.73;63.61
67005;HTU21D;53920;51.094;5.902;2022-09-09T12:18:33;20.69;64.23
67005;HTU21D;53920;51.094;5.902;2022-09-09T12:23:55;20.49;64.34
67005;HTU21D;53920;51.094;5.902;2022-09-09T12:32:11;20.14;64.82
67005;HTU21D;53920;51.094;5.902;2022-09-09T12:35:03;20.22;65.46
67005;HTU21D;53920;51.094;5.902;2022-09-09T12:40:18;21.15;62.44
67005;HTU21D;53920;51.094;5.902;2022-09-09T12:42:44;21.05;62.11
67005;HTU21D;53920;51.094;5.902;2022-09-09T12:45:19;20.81;62.57
67005;HTU21D;53920;51.094;5.902;2022-09-09T12:48:03;20.59;63.15
67005;HTU21D;53920;51.094;5.902;2022-09-09T12:50:38;20.12;64.41
67005;HTU21D;53920;51.094;5.902;2022-09-09T12:53:31;19.89;66.38
67005;HTU21D;53920;51.094;5.902;2022-09-09T12:56:04;19.85;67.05
67005;HTU21D;53920;51.094;5.902;2022-09-09T12:58:32;19.80;67.35
67005;HTU21D;53920;51.094;5.902;2022-09-09T13:01:00;19.92;66.95
67005;HTU21D;53920;51.094;5.902;2022-09-09T13:03:26;19.89;67.00
67005;HTU21D;53920;51.094;5.902;2022-09-09T13:05:58;19.35;70.39
67005;HTU21D;53920;51.094;5.902;2022-09-09T13:08:31;18.50;74.46
67005;HTU21D;53920;51.094;5.902;2022-09-09T13:11:01;17.85;76.90
67005;HTU21D;53920;51.094;5.902;2022-09-09T13:13:57;17.29;79.11
67005;HTU21D;53920;51.094;5.902;2022-09-09T13:16:35;16.99;80.38
67005;HTU21D;53920;51.094;5.902;2022-09-09T13:19:09;16.80;80.82
67005;HTU21D;53920;51.094;5.902;2022-09-09T13:21:38;16.58;81.26
67005;HTU21D;53920;51.094;5.902;2022-09-09T13:24:06;16.36;81.95
67005;HTU21D;53920;51.094;5.902;2022-09-09T13:26:34;16.27;82.62
67005;HTU21D;53920;51.094;5.902;2022-09-09T13:29:18;16.32;82.41
67005;HTU21D;53920;51.094;5.902;2022-09-09T13:31:45;16.24;82.24
67005;HTU21D;53920;51.094;5.902;2022-09-09T13:34:32;16.16;82.96
67005;HTU21D;53920;51.094;5.902;2022-09-09T13:37:07;16.13;82.91
67005;HTU21D;53920;51.094;5.902;2022-09-09T13:39:40;16.15;83.00
67005;HTU21D;53920;51.094;5.902;2022-09-09T13:42:19;16.12;83.19
67005;HTU21D;53920;51.094;5.902;2022-09-09T13:44:48;16.30;83.36
67005;HTU21D;53920;51.094;5.902;2022-09-09T13:47:19;16.40;83.07
67005;HTU21D;53920;51.094;5.902;2022-09-09T13:49:46;16.42;82.93
67005;HTU21D;53920;51.094;5.902;2022-09-09T13:52:18;16.64;83.00
67005;HTU21D;53920;51.094;5.902;2022-09-09T13:54:52;16.82;82.94
67005;HTU21D;53920;51.094;5.902;2022-09-09T13:57:22;17.04;82.46
67005;HTU21D;53920;51.094;5.902;2022-09-09T13:59:53;17.39;81.94
67005;HTU21D;53920;51.094;5.902;2022-09-09T14:02:20;17.80;81.14
67005;HTU21D;53920;51.094;5.902;2022-09-09T14:04:49;18.24;80.16
67005;HTU21D;53920;51.094;5.902;2022-09-09T14:07:18;18.63;79.00
67005;HTU21D;53920;51.094;5.902;2022-09-09T14:09:44;19.17;78.42
67005;HTU21D;53920;51.094;5.902;2022-09-09T14:12:14;20.01;77.37
67005;HTU21D;53920;51.094;5.902;2022-09-09T14:14:41;20.70;75.15
67005;HTU21D;53920;51.094;5.902;2022-09-09T14:17:08;21.18;73.43
67005;HTU21D;53920;51.094;5.902;2022-09-09T14:19:53;21.95;71.64
67005;HTU21D;53920;51.094;5.902;2022-09-09T14:22:38;22.91;69.39
67005;HTU21D;53920;51.094;5.902;2022-09-09T14:25:05;23.26;67.30
67005;HTU21D;53920;51.094;5.902;2022-09-09T14:27:31;23.24;66.15
67005;HTU21D;53920;51.094;5.902;2022-09-09T14:29:58;23.46;65.98
67005;HTU21D;53920;51.094;5.902;2022-09-09T14:32:25;23.67;64.30
67005;HTU21D;53920;51.094;5.902;2022-09-09T14:34:51;23.61;63.43
67005;HTU21D;53920;51.094;5.902;2022-09-09T14:37:18;23.76;62.63
67005;HTU21D;53920;51.094;5.902;2022-09-09T14:39:44;24.00;61.99
67005;HTU21D;53920;51.094;5.902;2022-09-09T14:42:13;24.01;60.16
67005;HTU21D;53920;51.094;5.902;2022-09-09T14:44:39;23.70;59.96
67005;HTU21D;53920;51.094;5.902;2022-09-09T14:47:08;23.28;60.52
67005;HTU21D;53920;51.094;5.902;2022-09-09T14:49:42;23.02;61.32
67005;HTU21D;53920;51.094;5.902;2022-09-09T14:52:08;23.34;60.06
67005;HTU21D;53920;51.094;5.902;2022-09-09T14:54:35;23.65;58.77
67005;HTU21D;53920;51.094;5.902;2022-09-09T14:57:00;23.88;59.03
67005;HTU21D;53920;51.094;5.902;2022-09-09T14:59:26;23.49;58.61
67005;HTU21D;53920;51.094;5.902;2022-09-09T15:01:52;23.13;58.84
67005;HTU21D;53920;51.094;5.902;2022-09-09T15:04:18;22.73;58.69
67005;HTU21D;53920;51.094;5.902;2022-09-09T15:06:47;22.43;59.85
67005;HTU21D;53920;51.094;5.902;2022-09-09T15:09:15;22.61;59.29
67005;HTU21D;53920;51.094;5.902;2022-09-09T15:11:41;22.63;59.06
67005;HTU21D;53920;51.094;5.902;2022-09-09T15:14:08;22.47;58.99
67005;HTU21D;53920;51.094;5.902;2022-09-09T15:16:35;22.23;59.25
67005;HTU21D;53920;51.094;5.902;2022-09-09T15:19:03;21.78;60.08
67005;HTU21D;53920;51.094;5.902;2022-09-09T15:21:37;21.64;61.06
67005;HTU21D;53920;51.094;5.902;2022-09-09T15:24:04;21.81;60.98
67005;HTU21D;53920;51.094;5.902;2022-09-09T15:26:31;21.90;60.76
67005;HTU21D;53920;51.094;5.902;2022-09-09T15:28:57;22.03;60.54
67005;HTU21D;53920;51.094;5.902;2022-09-09T15:31:30;22.14;60.17
67005;HTU21D;53920;51.094;5.902;2022-09-09T15:34:01;22.11;59.64
67005;HTU21D;53920;51.094;5.902;2022-09-09T15:36:42;22.09;59.77
67005;HTU21D;53920;51.094;5.902;2022-09-09T15:39:11;22.06;59.57
67005;HTU21D;53920;51.094;5.902;2022-09-09T15:41:44;22.10;59.57
67005;HTU21D;53920;51.094;5.902;2022-09-09T15:44:12;22.14;59.38
67005;HTU21D;53920;51.094;5.902;2022-09-09T15:46:42;22.16;59.33
67005;HTU21D;53920;51.094;5.902;2022-09-09T15:49:23;22.18;59.16
67005;HTU21D;53920;51.094;5.902;2022-09-09T15:51:58;22.16;59.08
67005;HTU21D;53920;51.094;5.902;2022-09-09T15:54:30;22.07;59.09
67005;HTU21D;53920;51.094;5.902;2022-09-09T15:57:00;21.77;58.89
67005;HTU21D;53920;51.094;5.902;2022-09-09T15:59:29;21.57;59.09
67005;HTU21D;53920;51.094;5.902;2022-09-09T16:01:56;21.45;59.07
67005;HTU21D;53920;51.094;5.902;2022-09-09T16:04:23;21.47;59.08
67005;HTU21D;53920;51.094;5.902;2022-09-09T16:06:54;21.49;59.25
67005;HTU21D;53920;51.094;5.902;2022-09-09T16:09:21;21.49;59.66
67005;HTU21D;53920;51.094;5.902;2022-09-09T16:11:48;21.38;59.83
67005;HTU21D;53920;51.094;5.902;2022-09-09T16:14:14;21.29;60.47
67005;HTU21D;53920;51.094;5.902;2022-09-09T16:16:42;21.15;61.15
67005;HTU21D;53920;51.094;5.902;2022-09-09T16:19:10;21.09;61.50
67005;HTU21D;53920;51.094;5.902;2022-09-09T16:21:40;20.99;61.58
67005;HTU21D;53920;51.094;5.902;2022-09-09T16:24:08;20.93;61.09
67005;HTU21D;53920;51.094;5.902;2022-09-09T16:26:40;20.77;61.29
67005;HTU21D;53920;51.094;5.902;2022-09-09T16:29:07;20.68;61.64
67005;HTU21D;53920;51.094;5.902;2022-09-09T16:31:33;20.68;61.79
67005;HTU21D;53920;51.094;5.902;2022-09-09T16:33:59;20.73;62.10
67005;HTU21D;53920;51.094;5.902;2022-09-09T16:36:31;20.69;62.08
67005;HTU21D;53920;51.094;5.902;2022-09-09T16:39:00;20.66;61.86
67005;HTU21D;53920;51.094;5.902;2022-09-09T16:41:28;20.68;62.28
67005;HTU21D;53920;51.094;5.902;2022-09-09T16:43:56;20.63;62.51
67005;HTU21D;53920;51.094;5.902;2022-09-09T16:46:23;20.51;62.74
67005;HTU21D;53920;51.094;5.902;2022-09-09T16:48:50;20.40;62.82
67005;HTU21D;53920;51.094;5.902;2022-09-09T16:51:28;20.22;63.21
67005;HTU21D;53920;51.094;5.902;2022-09-09T16:53:58;20.05;63.52
67005;HTU21D;53920;51.094;5.902;2022-09-09T16:56:30;19.96;63.66
67005;HTU21D;53920;51.094;5.902;2022-09-09T16:59:02;19.84;63.92
67005;HTU21D;53920;51.094;5.902;2022-09-09T17:01:31;19.77;64.40
67005;HTU21D;53920;51.094;5.902;2022-09-09T17:04:01;19.74;64.25
67005;HTU21D;53920;51.094;5.902;2022-09-09T17:06:30;19.67;64.50
67005;HTU21D;53920;51.094;5.902;2022-09-09T17:08:58;19.60;64.64
67005;HTU21D;53920;51.094;5.902;2022-09-09T17:11:29;19.54;64.52
67005;HTU21D;53920;51.094;5.902;2022-09-09T17:13:57;19.51;64.50
67005;HTU21D;53920;51.094;5.902;2022-09-09T17:16:29;19.43;64.11
67005;HTU21D;53920;51.094;5.902;2022-09-09T17:18:57;19.41;63.82
67005;HTU21D;53920;51.094;5.902;2022-09-09T17:21:28;19.36;63.75
67005;HTU21D;53920;51.094;5.902;2022-09-09T17:23:58;19.32;63.78
67005;HTU21D;53920;51.094;5.902;2022-09-09T17:26:28;19.31;64.15
67005;HTU21D;53920;51.094;5.902;2022-09-09T17:28:55;19.25;64.45